CYYQ

Churchill Airport

Airport
ICAO code
CYYQ
Summary
ICAO Region
NAM
ICAO Territory
Location

Churchill, Manitoba,

Coordinates
58° 44' 17" N , 94° 4' 14" W
KCC
Dfc
Airport BS
Non Avian Wildlife Hazards to Aircraft
Airport CFIT
Altimeter Temperature Error Correction
Airport GND
Aircraft Ground De/Anti Icing
Airport WX
Fog
Metar
Observation
CYYQ 171900Z 32010KT 15SM FEW040TCU 27/17 A2980 RMK TCU1 SLP094 DENSITY ALT 1700FT
Station
Churchill, Man.
Date/Time
2022-08-17 19:00:00
Wind direction
320°
Wind speed
10 kts
Lowest cloud amount
few clouds
Temperature
27°C
Dew point
17°C
Humidity
54%
Weather condition
n/a

Description

Airport serving Churchill, Manitoba.

Climatology

Subarctic climate (Köppen climate classification Dfc) - long, usually very cold winters, and short, cool to mild summers.

Note

Diversion airfield for commercial aircraft on Polar and NAT routes

Runways

Designator Length Width Surface Rops
7/25 1219 30 GVL No/No
15/33 2804 49 ASP No/No

Airport map

Aerial View

SKYbrary Partners:

Safety knowledge contributed by: